Time;durP1;ratioP1;P1;durP2;ratioP2;P2;SDS_P1;SDS_P2;PMS_P1;PMS_P2;Temp;Humidity;BMP_temperature;BMP_pressure;BME280_temperature;BME280_humidity;BME280_pressure;Samples;Min_cycle;Max_cycle;Signal;HPM_P1;HPM_P2
2024/03/07 00:01:55;;;;;;;33.80;16.95;;;3.30;99.90;;;;;;5061528;28;20057;-75
2024/03/07 00:04:20;;;;;;;32.45;17.38;;;3.20;99.90;;;;;;5062349;28;20048;-74
2024/03/07 00:06:46;;;;;;;32.25;16.92;;;3.20;99.90;;;;;;5060753;28;20025;-74
2024/03/07 00:09:12;;;;;;;33.38;17.73;;;3.20;99.90;;;;;;5061320;28;20087;-74
2024/03/07 00:11:38;;;;;;;35.30;17.42;;;3.10;99.90;;;;;;5061485;28;20060;-74
2024/03/07 00:14:06;;;;;;;34.47;18.20;;;3.10;99.90;;;;;;5061582;28;20063;-74
2024/03/07 00:16:33;;;;;;;36.08;18.58;;;3.10;99.90;;;;;;5062000;28;20021;-74
2024/03/07 00:19:00;;;;;;;37.67;18.33;;;3.10;99.90;;;;;;5060405;28;20111;-75
2024/03/07 00:21:26;;;;;;;40.53;19.08;;;3.10;99.90;;;;;;5062380;28;20024;-75
2024/03/07 00:23:53;;;;;;;38.95;19.75;;;3.00;99.90;;;;;;5061753;28;20035;-74
2024/03/07 00:26:19;;;;;;;40.35;20.25;;;3.00;99.90;;;;;;5062038;28;20025;-74
2024/03/07 00:28:44;;;;;;;40.33;20.45;;;2.90;99.90;;;;;;5061863;28;20032;-74
2024/03/07 00:31:10;;;;;;;44.88;21.60;;;2.90;99.90;;;;;;5061868;28;20686;-74
2024/03/07 00:33:36;;;;;;;47.42;22.23;;;2.90;99.90;;;;;;5062006;28;20061;-75
2024/03/07 00:36:02;;;;;;;44.47;22.25;;;2.90;99.90;;;;;;5061208;28;20025;-75
2024/03/07 00:38:28;;;;;;;45.45;22.40;;;2.80;99.90;;;;;;5060769;28;20025;-74
2024/03/07 00:40:53;;;;;;;43.25;22.88;;;2.80;99.90;;;;;;5060674;28;20021;-74
2024/03/07 00:43:20;;;;;;;48.03;23.25;;;2.80;99.90;;;;;;5060217;28;20032;-74
2024/03/07 00:45:49;;;;;;;47.13;22.48;;;2.80;99.90;;;;;;5061347;28;20021;-75
2024/03/07 00:48:15;;;;;;;52.47;24.85;;;2.80;99.90;;;;;;5064586;28;20051;-74
2024/03/07 00:50:42;;;;;;;50.38;24.50;;;2.70;99.90;;;;;;5064393;28;20091;-74
2024/03/07 00:53:08;;;;;;;51.42;24.77;;;2.70;99.90;;;;;;5065273;28;20021;-75
2024/03/07 00:55:34;;;;;;;49.75;24.38;;;2.70;99.90;;;;;;5065986;28;20029;-75
2024/03/07 00:57:59;;;;;;;50.83;25.02;;;2.70;99.90;;;;;;5064216;28;20032;-75
2024/03/07 01:00:25;;;;;;;51.70;24.92;;;2.70;99.90;;;;;;5064702;28;20092;-73
2024/03/07 01:02:53;;;;;;;55.50;25.73;;;2.70;99.90;;;;;;5064019;28;20013;-75
2024/03/07 01:05:19;;;;;;;53.20;25.77;;;2.60;99.90;;;;;;5064055;28;20029;-74
2024/03/07 01:07:47;;;;;;;55.30;26.50;;;2.60;99.90;;;;;;5065637;28;20029;-74
2024/03/07 01:10:13;;;;;;;57.00;26.35;;;2.60;99.90;;;;;;5063254;28;20044;-74
2024/03/07 01:12:39;;;;;;;62.78;28.60;;;2.60;99.90;;;;;;5064191;28;20024;-74
2024/03/07 01:15:05;;;;;;;65.70;28.52;;;2.60;99.90;;;;;;5064071;28;20040;-74
2024/03/07 01:17:32;;;;;;;59.67;26.88;;;2.50;99.90;;;;;;5064589;28;20027;-74
2024/03/07 01:19:58;;;;;;;59.17;27.80;;;2.50;99.90;;;;;;5063139;28;20029;-73
2024/03/07 01:22:24;;;;;;;63.47;28.23;;;2.50;99.90;;;;;;5063846;28;20029;-74
2024/03/07 01:24:50;;;;;;;58.45;27.85;;;2.40;99.90;;;;;;5064850;28;20028;-74
2024/03/07 01:27:16;;;;;;;66.80;29.33;;;2.50;99.90;;;;;;5065109;28;20025;-74
2024/03/07 01:29:44;;;;;;;67.65;29.30;;;2.40;99.90;;;;;;5063908;28;20027;-74
2024/03/07 01:32:10;;;;;;;66.07;28.88;;;2.40;99.90;;;;;;5064383;28;20086;-74
2024/03/07 01:34:36;;;;;;;75.82;31.73;;;2.40;99.90;;;;;;5064011;28;20029;-73
2024/03/07 01:37:01;;;;;;;73.03;30.33;;;2.40;99.90;;;;;;5063697;28;20044;-74
2024/03/07 01:39:27;;;;;;;76.13;31.67;;;2.40;99.90;;;;;;5062575;28;20033;-74
2024/03/07 01:41:53;;;;;;;80.35;32.22;;;2.40;99.90;;;;;;5063164;28;20032;-74
2024/03/07 01:44:18;;;;;;;78.85;33.75;;;2.40;99.90;;;;;;5064589;28;20845;-75
2024/03/07 01:46:44;;;;;;;75.30;31.73;;;2.40;99.90;;;;;;5063310;28;20041;-74
2024/03/07 01:49:10;;;;;;;76.47;33.10;;;2.40;99.90;;;;;;5064820;28;20029;-74
2024/03/07 01:51:37;;;;;;;79.45;33.03;;;2.40;99.90;;;;;;5064583;28;20040;-74
2024/03/07 01:54:03;;;;;;;89.97;32.83;;;2.40;99.90;;;;;;5064634;28;20021;-75
2024/03/07 01:56:29;;;;;;;93.32;34.97;;;2.40;99.90;;;;;;5063581;28;20029;-75
2024/03/07 01:58:56;;;;;;;114.22;35.20;;;2.40;99.90;;;;;;5063465;28;20016;-75
2024/03/07 02:01:22;;;;;;;95.30;36.00;;;2.40;99.90;;;;;;5064664;28;20124;-75
2024/03/07 02:03:48;;;;;;;120.22;38.05;;;2.40;99.90;;;;;;5062622;28;20025;-75
2024/03/07 02:06:14;;;;;;;121.53;36.97;;;2.40;99.90;;;;;;5064125;28;20072;-75
2024/03/07 02:08:40;;;;;;;139.32;39.70;;;2.40;99.90;;;;;;5064625;28;20017;-74
2024/03/07 02:11:06;;;;;;;130.20;39.45;;;2.40;99.90;;;;;;5064152;28;20045;-74
2024/03/07 02:13:32;;;;;;;111.35;39.08;;;2.40;99.90;;;;;;5062810;28;20135;-74
2024/03/07 02:15:58;;;;;;;124.43;39.83;;;2.50;99.90;;;;;;5064305;28;20033;-73
2024/03/07 02:18:24;;;;;;;117.07;40.20;;;2.50;99.90;;;;;;5063195;28;20021;-75
2024/03/07 02:20:50;;;;;;;114.95;39.47;;;2.50;99.90;;;;;;5063844;28;20067;-75
2024/03/07 02:23:16;;;;;;;161.95;41.45;;;2.60;99.90;;;;;;5062834;28;20029;-74
2024/03/07 02:25:41;;;;;;;118.90;39.35;;;2.60;99.90;;;;;;5062764;28;20033;-74
2024/03/07 02:28:07;;;;;;;162.32;41.80;;;2.60;99.90;;;;;;5062567;28;20044;-74
2024/03/07 02:30:33;;;;;;;160.40;41.80;;;2.70;99.90;;;;;;5064346;28;20108;-74
2024/03/07 02:33:06;;;;;;;128.63;40.40;;;2.70;99.90;;;;;;5062726;28;20059;-75
2024/03/07 02:35:33;;;;;;;135.43;40.43;;;2.70;99.90;;;;;;5062725;28;20025;-75
2024/03/07 02:37:59;;;;;;;120.43;40.00;;;2.70;99.90;;;;;;5062258;28;20027;-75
2024/03/07 02:40:25;;;;;;;165.13;42.72;;;2.70;99.90;;;;;;5062486;28;20120;-74
2024/03/07 02:42:50;;;;;;;117.18;40.78;;;2.70;99.90;;;;;;5063638;28;20036;-73
2024/03/07 02:45:16;;;;;;;143.90;42.20;;;2.80;99.90;;;;;;5063814;28;20029;-74
2024/03/07 02:47:42;;;;;;;119.47;41.60;;;2.80;99.90;;;;;;5062148;28;20763;-73
2024/03/07 02:50:09;;;;;;;209.02;42.88;;;2.80;99.90;;;;;;5063481;28;20032;-74
2024/03/07 02:52:35;;;;;;;125.20;40.30;;;2.80;99.90;;;;;;5063815;28;20505;-74
2024/03/07 02:55:03;;;;;;;115.53;41.50;;;2.90;99.90;;;;;;5062849;28;20032;-74
2024/03/07 02:57:28;;;;;;;153.20;40.65;;;2.90;99.90;;;;;;5061440;28;20160;-75
2024/03/07 02:59:54;;;;;;;128.77;41.50;;;2.90;99.90;;;;;;5062220;28;20028;-74
2024/03/07 03:02:20;;;;;;;130.55;41.75;;;2.90;99.90;;;;;;5061218;28;20025;-75
2024/03/07 03:04:45;;;;;;;161.10;41.88;;;2.90;99.90;;;;;;5063337;28;20025;-75
2024/03/07 03:07:11;;;;;;;152.77;41.63;;;3.00;99.90;;;;;;5063006;28;20096;-73
2024/03/07 03:09:39;;;;;;;149.55;42.95;;;3.00;99.90;;;;;;5061481;28;20048;-74
2024/03/07 03:12:05;;;;;;;124.32;42.78;;;3.00;99.90;;;;;;5062124;28;20017;-74
2024/03/07 03:14:31;;;;;;;122.55;42.65;;;3.00;99.90;;;;;;5062840;28;20040;-73
2024/03/07 03:16:56;;;;;;;111.55;39.22;;;3.00;99.90;;;;;;5061921;28;20087;-76
2024/03/07 03:19:23;;;;;;;141.32;41.15;;;3.10;99.90;;;;;;5063182;28;20029;-74
2024/03/07 03:21:48;;;;;;;128.25;40.95;;;3.10;99.90;;;;;;5062847;28;20041;-75
2024/03/07 03:24:15;;;;;;;119.47;39.08;;;3.10;99.90;;;;;;5062810;28;20032;-74
2024/03/07 03:26:42;;;;;;;103.68;40.05;;;3.10;99.90;;;;;;5061700;28;20040;-74
2024/03/07 03:29:09;;;;;;;112.30;41.40;;;3.10;99.90;;;;;;5062551;28;20021;-74
2024/03/07 03:31:35;;;;;;;110.95;41.05;;;3.20;99.90;;;;;;5063053;28;20060;-74
2024/03/07 03:34:01;;;;;;;113.60;40.80;;;3.20;99.90;;;;;;5062362;28;20020;-74
2024/03/07 03:36:27;;;;;;;119.80;42.40;;;3.30;99.90;;;;;;5062811;28;20074;-74
2024/03/07 03:38:52;;;;;;;108.43;40.58;;;3.30;99.90;;;;;;5062963;28;20036;-74
2024/03/07 03:41:18;;;;;;;117.20;40.53;;;3.40;99.90;;;;;;5061566;28;20032;-75
2024/03/07 03:43:44;;;;;;;109.20;40.95;;;3.40;99.90;;;;;;5062138;28;20043;-75
2024/03/07 03:46:11;;;;;;;114.68;40.17;;;3.40;99.90;;;;;;5061198;28;20048;-74
2024/03/07 03:48:38;;;;;;;108.97;39.90;;;3.40;99.90;;;;;;5062181;28;20032;-77
2024/03/07 03:51:03;;;;;;;109.10;40.20;;;3.40;99.90;;;;;;5062293;28;20097;-74
2024/03/07 03:53:29;;;;;;;107.00;40.28;;;3.40;99.90;;;;;;5062818;28;20052;-75
2024/03/07 03:55:54;;;;;;;104.63;39.95;;;3.40;99.90;;;;;;5061257;28;20021;-73
2024/03/07 03:58:20;;;;;;;101.15;38.53;;;3.40;99.90;;;;;;5060813;28;20470;-74
2024/03/07 04:00:45;;;;;;;95.75;37.88;;;3.50;99.90;;;;;;5060111;28;20035;-74
2024/03/07 04:03:11;;;;;;;95.75;38.17;;;3.50;99.90;;;;;;5062136;28;20025;-74
2024/03/07 04:05:36;;;;;;;100.75;38.67;;;3.60;99.90;;;;;;5062190;28;20075;-74
2024/03/07 04:08:04;;;;;;;99.07;36.90;;;3.60;99.90;;;;;;5062433;28;20040;-74
2024/03/07 04:10:29;;;;;;;103.47;38.45;;;3.60;99.90;;;;;;5062244;28;20099;-74
2024/03/07 04:12:55;;;;;;;94.00;37.95;;;3.60;99.90;;;;;;5061927;28;20022;-74
2024/03/07 04:15:20;;;;;;;99.72;37.25;;;3.60;99.90;;;;;;5062253;28;20036;-74
2024/03/07 04:17:46;;;;;;;106.78;38.38;;;3.60;99.90;;;;;;5062232;28;20029;-75
2024/03/07 04:20:13;;;;;;;104.50;39.15;;;3.60;99.90;;;;;;5061760;28;20033;-76
2024/03/07 04:22:39;;;;;;;105.70;38.28;;;3.60;99.90;;;;;;5059248;28;20052;-74
2024/03/07 04:25:06;;;;;;;97.13;37.13;;;3.60;99.90;;;;;;5060591;28;20025;-74
2024/03/07 04:27:34;;;;;;;83.38;35.13;;;3.60;99.90;;;;;;5061898;28;20029;-75
2024/03/07 04:30:03;;;;;;;84.85;33.95;;;3.60;99.90;;;;;;5062129;28;20051;-75
2024/03/07 04:32:28;;;;;;;90.25;35.13;;;3.50;99.90;;;;;;5060486;28;20020;-74
2024/03/07 04:34:57;;;;;;;86.88;33.88;;;3.50;99.90;;;;;;5061295;28;20037;-74
2024/03/07 04:37:22;;;;;;;81.45;32.22;;;3.50;99.90;;;;;;5060114;28;20082;-76
2024/03/07 04:39:48;;;;;;;87.85;34.72;;;3.50;99.90;;;;;;5061566;28;20029;-75
2024/03/07 04:42:14;;;;;;;86.30;33.85;;;3.50;99.90;;;;;;5058864;28;20036;-74
2024/03/07 04:44:39;;;;;;;87.70;33.92;;;3.50;99.90;;;;;;5060688;28;20057;-75
2024/03/07 04:47:05;;;;;;;82.55;33.90;;;3.50;99.90;;;;;;5061529;28;20037;-74
2024/03/07 04:49:32;;;;;;;85.32;34.08;;;3.50;99.90;;;;;;5062255;28;20041;-74
2024/03/07 04:51:59;;;;;;;83.57;33.83;;;3.60;99.90;;;;;;5061843;28;20028;-74
2024/03/07 04:54:26;;;;;;;73.47;31.50;;;3.50;99.90;;;;;;5061139;28;20021;-75
2024/03/07 04:56:52;;;;;;;77.40;30.70;;;3.50;99.90;;;;;;5060530;28;20457;-74
2024/03/07 04:59:19;;;;;;;84.65;32.65;;;3.50;99.90;;;;;;5057441;28;20032;-74
2024/03/07 05:01:46;;;;;;;74.43;30.92;;;3.50;99.90;;;;;;5057656;28;20040;-75
2024/03/07 05:04:13;;;;;;;74.88;31.25;;;3.50;99.90;;;;;;5059733;28;20512;-74
2024/03/07 05:06:39;;;;;;;75.60;30.38;;;3.50;99.90;;;;;;5057135;28;20029;-75
2024/03/07 05:09:06;;;;;;;72.63;30.67;;;3.60;99.90;;;;;;5058397;28;20021;-74
2024/03/07 05:11:33;;;;;;;75.13;31.50;;;3.50;99.90;;;;;;5061143;28;20031;-74
2024/03/07 05:14:00;;;;;;;73.22;29.98;;;3.60;99.90;;;;;;5057839;28;20052;-73
2024/03/07 05:16:26;;;;;;;74.07;29.45;;;3.60;99.90;;;;;;5059333;28;20056;-72
2024/03/07 05:18:52;;;;;;;78.22;31.63;;;3.60;99.90;;;;;;5056054;28;20115;-72
2024/03/07 05:21:37;;;;;;;74.95;29.98;;;3.70;99.90;;;;;;5061188;28;20047;-71
2024/03/07 05:24:04;;;;;;;74.38;29.27;;;3.70;99.90;;;;;;5061282;28;20080;-72
2024/03/07 05:26:34;;;;;;;66.15;28.15;;;3.70;99.90;;;;;;5060676;28;20040;-72
2024/03/07 05:29:07;;;;;;;67.15;28.27;;;3.80;99.90;;;;;;5060685;28;20398;-73
2024/03/07 05:31:48;;;;;;;65.47;27.13;;;3.70;99.90;;;;;;5061781;28;20116;-72
2024/03/07 05:34:14;;;;;;;62.10;26.77;;;3.80;99.90;;;;;;5063526;28;20029;-72
2024/03/07 05:36:46;;;;;;;66.82;27.35;;;3.80;99.90;;;;;;5064302;28;20029;-71
2024/03/07 05:39:16;;;;;;;65.57;28.40;;;3.80;99.90;;;;;;5064827;28;20032;-72
2024/03/07 05:41:44;;;;;;;62.85;26.77;;;3.90;99.90;;;;;;5062866;28;20029;-71
2024/03/07 05:44:10;;;;;;;66.03;28.17;;;3.90;99.90;;;;;;5063612;28;20422;-71
2024/03/07 05:46:41;;;;;;;69.97;29.30;;;3.90;99.90;;;;;;5061541;28;20083;-72
2024/03/07 05:49:08;;;;;;;71.50;29.80;;;3.90;99.90;;;;;;5063271;28;20020;-72
2024/03/07 05:51:33;;;;;;;75.65;30.92;;;3.90;99.90;;;;;;5064125;28;20033;-72
2024/03/07 05:53:59;;;;;;;85.82;31.50;;;3.90;99.90;;;;;;5063113;28;20025;-71
2024/03/07 05:56:24;;;;;;;78.13;31.63;;;3.90;99.90;;;;;;5062913;28;20024;-71
2024/03/07 05:58:51;;;;;;;82.07;33.13;;;3.90;99.90;;;;;;5063345;28;20031;-72
2024/03/07 06:01:17;;;;;;;92.65;33.92;;;4.00;99.90;;;;;;5063346;28;20021;-71
2024/03/07 06:03:43;;;;;;;83.55;33.83;;;4.00;99.90;;;;;;5060709;28;20021;-71
2024/03/07 06:06:11;;;;;;;85.32;34.17;;;4.00;99.90;;;;;;5061236;28;20051;-72
2024/03/07 06:08:41;;;;;;;81.18;33.05;;;4.10;99.90;;;;;;5062799;28;20021;-72
2024/03/07 06:11:08;;;;;;;84.82;34.50;;;4.10;99.90;;;;;;5063779;28;20092;-71
2024/03/07 06:13:33;;;;;;;81.68;32.97;;;4.10;99.90;;;;;;5063931;28;20394;-71
2024/03/07 06:16:01;;;;;;;84.05;33.55;;;4.10;99.90;;;;;;5064080;28;20024;-72
2024/03/07 06:18:31;;;;;;;80.97;31.58;;;4.10;99.90;;;;;;5063784;28;20024;-71
2024/03/07 06:20:57;;;;;;;77.50;30.52;;;4.10;99.90;;;;;;5064349;28;20021;-72
2024/03/07 06:23:22;;;;;;;75.47;30.63;;;4.10;99.90;;;;;;5063869;28;20036;-72
2024/03/07 06:25:50;;;;;;;76.75;31.15;;;4.10;99.90;;;;;;5064188;28;20029;-72
2024/03/07 06:28:17;;;;;;;77.93;31.17;;;4.10;99.90;;;;;;5064043;28;20058;-71
2024/03/07 06:30:45;;;;;;;72.10;29.45;;;4.10;99.90;;;;;;5063285;28;20013;-72
2024/03/07 06:33:11;;;;;;;76.85;32.78;;;4.10;99.90;;;;;;5063807;28;20033;-71
2024/03/07 06:35:38;;;;;;;75.05;31.35;;;4.10;99.90;;;;;;5064142;28;20085;-72
2024/03/07 06:38:05;;;;;;;65.45;28.27;;;4.10;99.90;;;;;;5062288;28;20115;-72
2024/03/07 06:40:32;;;;;;;78.47;31.52;;;4.20;99.90;;;;;;5060081;28;20029;-72
2024/03/07 06:42:58;;;;;;;67.85;28.73;;;4.20;99.90;;;;;;5062188;28;20032;-72
2024/03/07 06:45:24;;;;;;;69.07;28.25;;;4.20;99.90;;;;;;5056720;28;20134;-72
2024/03/07 06:47:52;;;;;;;65.72;26.73;;;4.30;99.90;;;;;;5059152;28;20037;-72
2024/03/07 06:50:19;;;;;;;60.10;25.95;;;4.30;99.90;;;;;;5054016;28;20047;-72
2024/03/07 06:52:48;;;;;;;66.28;26.85;;;4.30;99.90;;;;;;5059821;28;20021;-72
2024/03/07 06:55:18;;;;;;;63.22;25.33;;;4.30;99.90;;;;;;5057324;28;20034;-72
2024/03/07 06:57:45;;;;;;;68.95;26.90;;;4.40;99.90;;;;;;5055888;28;20076;-73
2024/03/07 07:00:19;;;;;;;59.20;25.40;;;4.40;99.90;;;;;;5059011;28;20021;-72
2024/03/07 07:02:46;;;;;;;60.10;25.17;;;4.40;99.90;;;;;;5060810;28;20025;-71
2024/03/07 07:05:11;;;;;;;63.85;26.17;;;4.40;99.90;;;;;;5062030;28;20040;-71
2024/03/07 07:07:38;;;;;;;57.55;25.02;;;4.50;99.90;;;;;;5063101;28;20029;-72
2024/03/07 07:10:07;;;;;;;63.00;24.88;;;4.50;99.90;;;;;;5061617;28;20053;-73
2024/03/07 07:12:33;;;;;;;63.80;25.40;;;4.50;99.90;;;;;;5061690;28;20508;-73
2024/03/07 07:14:58;;;;;;;66.57;26.73;;;4.50;99.90;;;;;;5063114;28;20025;-72
2024/03/07 07:17:25;;;;;;;59.83;25.13;;;4.60;99.90;;;;;;5061008;28;20040;-72
2024/03/07 07:19:52;;;;;;;59.97;25.33;;;4.70;99.90;;;;;;5060255;28;20017;-72
2024/03/07 07:22:18;;;;;;;55.05;24.95;;;4.70;99.90;;;;;;5060116;28;20029;-72
2024/03/07 07:24:44;;;;;;;59.40;25.70;;;4.70;99.90;;;;;;5062848;28;20029;-72
2024/03/07 07:27:09;;;;;;;61.67;25.25;;;4.70;99.90;;;;;;5060917;28;20041;-72
2024/03/07 07:29:35;;;;;;;60.88;25.73;;;4.80;99.90;;;;;;5055668;28;20033;-71
2024/03/07 07:32:00;;;;;;;60.13;25.98;;;4.80;99.90;;;;;;5060889;28;20044;-73
2024/03/07 07:34:26;;;;;;;67.07;27.38;;;4.70;99.90;;;;;;5058025;28;20025;-71
2024/03/07 07:36:53;;;;;;;61.00;27.65;;;4.90;99.90;;;;;;5061094;28;20025;-72
2024/03/07 07:39:18;;;;;;;66.57;29.35;;;5.00;99.90;;;;;;5061320;28;20032;-72
2024/03/07 07:41:44;;;;;;;69.85;27.85;;;4.90;99.90;;;;;;5061182;28;20025;-71
2024/03/07 07:44:09;;;;;;;68.90;29.80;;;4.90;99.90;;;;;;5061118;28;20032;-71
2024/03/07 07:46:35;;;;;;;68.18;29.35;;;4.90;99.90;;;;;;5060342;28;20060;-73
2024/03/07 07:49:02;;;;;;;70.82;30.08;;;4.90;99.90;;;;;;5059352;28;20033;-73
2024/03/07 07:51:28;;;;;;;67.63;29.42;;;4.90;99.90;;;;;;5060173;28;20024;-72
2024/03/07 07:53:56;;;;;;;64.97;28.30;;;4.90;99.90;;;;;;5058308;28;20091;-72
2024/03/07 07:56:23;;;;;;;65.85;28.27;;;4.80;99.90;;;;;;5057057;28;20148;-71
2024/03/07 07:58:48;;;;;;;68.63;28.60;;;4.90;99.90;;;;;;5058517;28;20119;-71
2024/03/07 08:01:16;;;;;;;62.17;27.83;;;4.80;99.90;;;;;;5055682;28;20167;-71
2024/03/07 08:03:43;;;;;;;64.00;27.23;;;4.80;99.90;;;;;;5053665;28;20029;-72
2024/03/07 08:06:09;;;;;;;57.20;27.95;;;4.80;99.90;;;;;;5046470;28;20031;-71
2024/03/07 08:08:35;;;;;;;70.07;28.13;;;4.80;99.90;;;;;;5060204;28;20029;-72
2024/03/07 08:11:01;;;;;;;59.60;28.08;;;4.80;99.90;;;;;;5061658;28;20102;-71
2024/03/07 08:13:29;;;;;;;64.20;29.15;;;4.80;99.90;;;;;;5059619;28;20021;-71
2024/03/07 08:15:55;;;;;;;69.13;28.88;;;4.90;99.90;;;;;;5058743;28;20032;-71
2024/03/07 08:18:21;;;;;;;65.30;29.42;;;4.80;99.90;;;;;;5058399;28;20033;-71
2024/03/07 08:20:47;;;;;;;61.13;28.23;;;4.90;99.90;;;;;;5059584;28;20059;-71
2024/03/07 08:23:12;;;;;;;67.18;29.65;;;4.90;99.90;;;;;;5060425;28;20029;-72
2024/03/07 08:25:40;;;;;;;60.47;27.13;;;4.90;99.90;;;;;;5059219;28;20025;-72
2024/03/07 08:28:06;;;;;;;62.22;28.25;;;4.90;99.90;;;;;;5061101;28;20796;-72
2024/03/07 08:30:32;;;;;;;67.32;28.42;;;4.90;99.90;;;;;;5060555;28;20448;-72
2024/03/07 08:33:05;;;;;;;62.17;27.85;;;4.90;99.90;;;;;;5061282;28;20021;-72
2024/03/07 08:35:31;;;;;;;58.38;27.85;;;4.90;99.90;;;;;;5060709;28;20036;-73
2024/03/07 08:37:57;;;;;;;60.90;27.85;;;4.90;99.90;;;;;;5059300;28;20040;-72
2024/03/07 08:40:25;;;;;;;63.47;27.45;;;4.90;99.90;;;;;;5056885;28;20051;-71
2024/03/07 08:42:53;;;;;;;57.67;26.65;;;4.90;99.90;;;;;;5059010;28;20051;-71
2024/03/07 08:45:20;;;;;;;64.63;28.27;;;4.90;99.90;;;;;;5059577;28;20036;-72
2024/03/07 08:47:47;;;;;;;64.43;28.05;;;4.90;99.90;;;;;;5057751;28;20080;-71
2024/03/07 08:50:13;;;;;;;62.60;28.95;;;5.00;99.90;;;;;;5060719;28;20049;-71
2024/03/07 08:52:40;;;;;;;62.90;27.95;;;5.00;99.90;;;;;;5053571;28;20030;-74
2024/03/07 08:55:11;;;;;;;63.47;28.50;;;5.00;99.90;;;;;;5059918;28;20027;-73
2024/03/07 08:57:37;;;;;;;68.68;29.88;;;5.00;99.90;;;;;;5060499;28;20032;-73
2024/03/07 09:00:10;;;;;;;65.97;30.33;;;5.00;99.90;;;;;;5059767;28;20021;-72
2024/03/07 09:02:38;;;;;;;70.35;29.67;;;5.10;99.90;;;;;;5057918;28;20040;-73
2024/03/07 09:05:05;;;;;;;67.60;31.27;;;5.10;99.90;;;;;;5058845;28;20100;-73
2024/03/07 09:07:32;;;;;;;66.82;30.77;;;5.20;99.90;;;;;;5060853;28;20032;-73
2024/03/07 09:09:57;;;;;;;70.03;31.42;;;5.20;99.90;;;;;;5064030;28;20044;-73
2024/03/07 09:12:25;;;;;;;75.18;32.90;;;5.20;99.90;;;;;;5063667;28;20014;-72
2024/03/07 09:14:55;;;;;;;73.13;31.77;;;5.20;99.90;;;;;;5063830;28;20055;-73
2024/03/07 09:17:21;;;;;;;67.75;31.38;;;5.30;99.90;;;;;;5065040;28;20131;-72
2024/03/07 09:19:47;;;;;;;72.13;31.58;;;5.50;99.90;;;;;;5065153;28;20107;-72
2024/03/07 09:22:12;;;;;;;74.60;34.10;;;5.40;99.90;;;;;;5063673;28;20025;-73
2024/03/07 09:24:39;;;;;;;72.63;32.50;;;5.50;99.90;;;;;;5065470;28;20025;-73
2024/03/07 09:27:04;;;;;;;75.40;33.53;;;5.60;99.90;;;;;;5065097;28;20076;-73
2024/03/07 09:29:30;;;;;;;74.68;32.28;;;5.60;99.90;;;;;;5063842;28;20036;-73
2024/03/07 09:31:57;;;;;;;67.95;31.23;;;5.50;99.90;;;;;;5065328;28;20033;-72
2024/03/07 09:34:23;;;;;;;65.22;30.75;;;5.60;99.90;;;;;;5065179;28;20024;-72
2024/03/07 09:36:49;;;;;;;75.00;32.83;;;5.70;99.90;;;;;;5065004;28;20033;-73
2024/03/07 09:39:16;;;;;;;74.38;31.15;;;5.60;99.90;;;;;;5065157;28;20075;-73
2024/03/07 09:41:41;;;;;;;76.35;32.42;;;5.60;99.90;;;;;;5064814;28;20029;-73
2024/03/07 09:44:22;;;;;;;62.55;31.02;;;5.60;99.90;;;;;;5064512;28;20108;-73
2024/03/07 09:46:48;;;;;;;66.82;30.58;;;5.60;99.90;;;;;;5063659;28;20580;-72
2024/03/07 09:49:14;;;;;;;69.78;31.38;;;5.60;99.90;;;;;;5064507;28;20028;-72
2024/03/07 09:51:42;;;;;;;61.33;30.33;;;5.60;99.90;;;;;;5065012;28;20041;-73
2024/03/07 09:54:08;;;;;;;67.78;30.90;;;5.70;99.90;;;;;;5064634;28;21263;-72
2024/03/07 09:56:37;;;;;;;68.45;31.33;;;5.60;99.90;;;;;;5063118;28;20037;-73
2024/03/07 09:59:13;;;;;;;62.65;28.17;;;5.60;99.90;;;;;;5064774;28;20136;-72
2024/03/07 10:01:41;;;;;;;60.00;28.75;;;5.60;99.90;;;;;;5064312;28;20029;-72
2024/03/07 10:04:12;;;;;;;60.70;27.92;;;5.70;99.90;;;;;;5064072;28;20084;-72
2024/03/07 10:06:46;;;;;;;60.90;29.48;;;5.70;99.90;;;;;;5064047;28;20029;-72
2024/03/07 10:09:14;;;;;;;59.38;28.23;;;5.60;99.90;;;;;;5063977;28;21273;-72
2024/03/07 10:11:41;;;;;;;51.70;25.77;;;5.60;99.90;;;;;;5064036;28;20077;-73
2024/03/07 10:14:07;;;;;;;57.65;27.50;;;5.60;99.90;;;;;;5064306;28;20023;-72
2024/03/07 10:16:33;;;;;;;60.90;28.42;;;5.60;99.90;;;;;;5064115;28;20079;-73
2024/03/07 10:19:00;;;;;;;67.20;30.42;;;5.70;99.90;;;;;;5063643;28;20102;-72
2024/03/07 10:21:26;;;;;;;69.45;31.88;;;5.80;99.90;;;;;;5064507;28;20033;-72
2024/03/07 10:24:06;;;;;;;77.13;30.48;;;5.70;99.90;;;;;;5063335;28;20428;-72
2024/03/07 10:26:37;;;;;;;82.05;35.15;;;5.70;99.90;;;;;;5063947;28;20060;-72
2024/03/07 10:29:04;;;;;;;71.55;32.85;;;5.60;99.90;;;;;;5064532;28;20051;-71
2024/03/07 10:31:33;;;;;;;76.63;35.13;;;5.60;99.90;;;;;;5062500;28;20029;-72
2024/03/07 10:34:08;;;;;;;74.25;33.58;;;5.60;99.90;;;;;;5063955;28;20028;-73
2024/03/07 10:36:34;;;;;;;;;;;5.70;99.90;;;;;;5064503;28;20028;-72
2024/03/07 10:39:01;;;;;;;73.10;32.58;;;5.70;99.90;;;;;;5063501;28;19917;-73
2024/03/07 10:41:30;;;;;;;81.85;36.97;;;5.70;99.90;;;;;;5063888;28;20021;-72
2024/03/07 10:43:58;;;;;;;77.28;34.03;;;5.80;99.90;;;;;;5063579;28;20052;-72
2024/03/07 10:46:25;;;;;;;78.95;35.13;;;5.70;99.90;;;;;;5063172;28;20120;-72
2024/03/07 10:48:55;;;;;;;74.82;35.42;;;5.80;99.90;;;;;;5063777;28;20047;-73
2024/03/07 10:51:25;;;;;;;76.88;34.35;;;5.80;99.90;;;;;;5063307;28;20029;-72
2024/03/07 10:54:17;;;;;;;75.32;35.63;;;5.80;99.90;;;;;;5062754;28;20032;-72
2024/03/07 10:56:48;;;;;;;76.25;34.28;;;5.90;99.90;;;;;;5063681;28;20040;-72
2024/03/07 10:59:18;;;;;;;63.63;30.85;;;6.00;99.90;;;;;;5062094;28;20043;-73
2024/03/07 11:02:06;;;;;;;73.28;33.28;;;6.10;99.90;;;;;;5062916;28;20017;-72
2024/03/07 11:04:34;;;;;;;70.80;32.88;;;6.20;99.90;;;;;;5062653;28;20277;-72
2024/03/07 11:07:00;;;;;;;62.72;29.58;;;6.40;99.90;;;;;;5048642;28;20041;-74
2024/03/07 11:09:32;;;;;;;64.20;30.25;;;6.40;99.90;;;;;;5061306;28;20498;-72
2024/03/07 11:12:00;;;;;;;62.53;30.05;;;6.50;99.90;;;;;;5059748;28;20029;-74
2024/03/07 11:14:26;;;;;;;63.15;32.90;;;6.50;99.90;;;;;;5060926;28;20473;-72
2024/03/07 11:16:52;;;;;;;72.00;32.92;;;6.60;99.90;;;;;;5063159;28;20025;-72
2024/03/07 11:19:31;;;;;;;66.43;33.13;;;6.70;99.90;;;;;;5062803;28;20032;-72
2024/03/07 11:22:00;;;;;;;63.10;31.38;;;6.80;99.90;;;;;;5062985;28;20028;-72
2024/03/07 11:24:33;;;;;;;61.63;31.25;;;7.00;99.90;;;;;;5062931;28;20030;-70
2024/03/07 11:27:04;;;;;;;61.38;31.35;;;7.10;99.90;;;;;;5062392;28;20029;-72
2024/03/07 11:29:42;;;;;;;58.85;30.60;;;7.20;99.90;;;;;;5062693;28;20017;-72
2024/03/07 11:32:13;;;;;;;60.10;28.73;;;7.30;99.90;;;;;;5062769;28;20021;-72
2024/03/07 11:34:41;;;;;;;49.90;25.67;;;7.50;99.90;;;;;;5062597;28;20081;-73
2024/03/07 11:37:07;;;;;;;45.60;24.48;;;7.50;99.90;;;;;;5059408;28;20044;-73
2024/03/07 11:39:46;;;;;;;45.20;21.95;;;7.50;99.90;;;;;;5057469;28;20021;-73
2024/03/07 11:42:30;;;;;;;35.67;19.73;;;7.50;99.90;;;;;;5061172;28;20028;-73
2024/03/07 11:44:56;;;;;;;36.53;20.30;;;7.50;99.90;;;;;;5058005;28;20060;-72
2024/03/07 11:47:28;;;;;;;32.08;17.95;;;7.40;99.90;;;;;;5060706;28;20068;-71
2024/03/07 11:49:57;;;;;;;36.78;18.80;;;7.40;99.90;;;;;;5059652;28;20052;-72
2024/03/07 11:52:23;;;;;;;30.08;16.77;;;7.30;99.90;;;;;;5058557;28;20055;-71
2024/03/07 11:54:49;;;;;;;29.45;16.58;;;7.30;99.90;;;;;;5057456;28;20123;-70
2024/03/07 11:57:26;;;;;;;32.53;15.93;;;7.20;99.90;;;;;;5058527;28;20074;-73
2024/03/07 11:59:52;;;;;;;27.92;15.75;;;7.10;99.90;;;;;;5050744;28;20044;-71
2024/03/07 12:02:21;;;;;;;27.42;14.55;;;7.00;99.90;;;;;;5043171;28;20527;-71
2024/03/07 12:04:48;;;;;;;23.52;13.05;;;6.90;99.90;;;;;;5050277;28;20119;-72
2024/03/07 12:07:17;;;;;;;24.80;13.38;;;6.90;99.90;;;;;;5055561;28;20480;-71
2024/03/07 12:09:45;;;;;;;25.83;13.32;;;6.80;99.90;;;;;;5052478;28;20055;-72
2024/03/07 12:12:11;;;;;;;30.15;13.27;;;6.80;99.90;;;;;;5060181;28;20055;-71
2024/03/07 12:14:38;;;;;;;24.00;10.60;;;6.70;99.90;;;;;;5055825;28;20025;-73
2024/03/07 12:17:05;;;;;;;23.77;13.80;;;6.60;99.90;;;;;;5053937;28;20024;-72
2024/03/07 12:19:35;;;;;;;26.60;13.65;;;6.60;99.90;;;;;;5060091;28;20029;-72
2024/03/07 12:22:03;;;;;;;25.20;13.27;;;6.60;99.90;;;;;;5060382;28;20027;-72
2024/03/07 12:24:29;;;;;;;30.42;15.73;;;6.60;99.90;;;;;;5059629;28;20025;-73
2024/03/07 12:27:06;;;;;;;26.60;14.07;;;6.60;99.90;;;;;;5055918;28;20041;-72
2024/03/07 12:29:33;;;;;;;25.73;13.35;;;6.50;99.90;;;;;;5057934;28;20047;-73
2024/03/07 12:31:59;;;;;;;26.88;14.73;;;6.50;99.90;;;;;;5061921;28;20037;-72
2024/03/07 12:34:26;;;;;;;30.05;14.90;;;6.50;99.90;;;;;;5060816;28;20021;-72
2024/03/07 12:36:55;;;;;;;26.65;14.10;;;6.40;99.90;;;;;;5061545;28;20080;-72